CheckWX is a tool to help pilots better visualize weather data.  It is not intended as a substitute for an official pre-flight weather briefing.

23:00:46 UTC

GVBA METAR
Rabil Airport Airport
Rabil, Cape Verde
Current

5 hours ago

GVBA 101800Z 02012KT 9000 SCT014 28/21 Q1008 NOSIG
Observed
Jul-10 @ 18:00 UTC
Wind
  • 020° at 12 KTS
Visibility
8996 meters
Flight Rules
VFR
Cloud Levels
  • Scattered at 1,400' AGL
Temperature
28°C / 82°F
Dewpoint
21°C / 70°F
Humidity
66%
Altimeter
29.76" Hg
Pressure
1007.92 hPa
Previous

6 hours ago

GVBA 101700Z 01012KT 8000 BKN014 28/21 Q1008 NOSIG
Observed
Jul-10 @ 17:00 UTC
Wind
  • 010° at 12 KTS
Visibility
7998 meters
Flight Rules
MVFR
Cloud Levels
  • Broken at 1,400' AGL
Temperature
28°C / 82°F
Dewpoint
21°C / 70°F
Humidity
66%
Altimeter
29.76" Hg
Pressure
1007.92 hPa
Previous

7 hours ago

GVBA 101600Z 35012KT 8000 BKN014 28/21 Q1018 NOSIG
Observed
Jul-10 @ 16:00 UTC
Wind
  • 350° at 12 KTS
Visibility
7998 meters
Flight Rules
MVFR
Cloud Levels
  • Broken at 1,400' AGL
Temperature
28°C / 82°F
Dewpoint
21°C / 70°F
Humidity
66%
Altimeter
30.06" Hg
Pressure
1017.92 hPa